createdAt,value
2018-08-25T00:01:58.273Z,12.10
2018-08-25T00:04:33.314Z,12.10
2018-08-25T00:07:08.358Z,11.93
2018-08-25T00:09:43.172Z,11.37
2018-08-25T00:12:17.732Z,12.00
2018-08-25T00:14:52.141Z,11.97
2018-08-25T00:17:26.735Z,11.40
2018-08-25T00:20:01.884Z,11.23
2018-08-25T00:22:36.570Z,11.13
2018-08-25T00:25:11.894Z,10.40
2018-08-25T00:27:46.648Z,11.03
2018-08-25T00:30:26.474Z,11.07
2018-08-25T00:33:00.982Z,11.80
2018-08-25T00:35:35.327Z,10.63
2018-08-25T00:38:10.146Z,11.27
2018-08-25T00:40:45.422Z,10.63
2018-08-25T00:43:20.380Z,11.20
2018-08-25T00:45:54.716Z,11.70
2018-08-25T00:48:29.266Z,10.83
2018-08-25T00:51:04.317Z,10.80
2018-08-25T00:53:38.978Z,10.97
2018-08-25T00:56:14.048Z,11.47
2018-08-25T00:58:48.752Z,10.97
2018-08-25T01:01:23.187Z,10.80
2018-08-25T01:03:58.460Z,11.00
2018-08-25T01:06:33.038Z,10.53
2018-08-25T01:09:09.123Z,12.07
2018-08-25T01:11:43.791Z,11.07
2018-08-25T01:14:18.720Z,11.63
2018-08-25T01:16:53.198Z,12.23
2018-08-25T01:19:28.219Z,12.40
2018-08-25T01:22:02.859Z,11.70
2018-08-25T01:24:37.692Z,12.03
2018-08-25T01:27:12.316Z,11.43
2018-08-25T01:29:46.840Z,12.50
2018-08-25T01:32:21.280Z,12.53
2018-08-25T01:34:56.004Z,11.30
2018-08-25T01:37:30.597Z,11.70
2018-08-25T01:40:05.657Z,11.50
2018-08-25T01:42:40.468Z,11.37
2018-08-25T01:45:14.840Z,11.60
2018-08-25T01:47:49.296Z,10.83
2018-08-25T01:50:23.700Z,11.43
2018-08-25T01:52:58.124Z,11.30
2018-08-25T01:55:32.747Z,11.27
2018-08-25T01:58:08.015Z,11.10
2018-08-25T02:00:42.612Z,12.00
2018-08-25T02:03:17.127Z,11.63
2018-08-25T02:05:51.451Z,10.97
2018-08-25T02:08:25.803Z,11.53
2018-08-25T02:11:00.590Z,11.13
2018-08-25T02:13:35.027Z,11.20
2018-08-25T02:16:09.835Z,10.70
2018-08-25T02:18:44.527Z,10.70
2018-08-25T02:21:19.627Z,10.67
2018-08-25T02:23:53.934Z,11.07
2018-08-25T02:26:28.479Z,10.07
2018-08-25T02:29:03.323Z,10.37
2018-08-25T02:31:37.752Z,9.70
2018-08-25T02:34:12.663Z,10.27
2018-08-25T02:36:47.757Z,11.27
2018-08-25T02:39:22.419Z,10.17
2018-08-25T02:41:56.824Z,10.50
2018-08-25T02:44:31.403Z,10.47
2018-08-25T02:47:05.902Z,11.00
2018-08-25T02:49:40.629Z,9.83
2018-08-25T02:52:15.575Z,10.63
2018-08-25T02:54:50.050Z,10.67
2018-08-25T02:57:24.567Z,10.23
2018-08-25T02:59:59.484Z,11.20
2018-08-25T03:02:33.991Z,10.20
2018-08-25T03:05:08.677Z,10.00
2018-08-25T03:07:43.880Z,10.10
2018-08-25T03:10:18.560Z,10.70
2018-08-25T03:12:52.942Z,10.13
2018-08-25T03:15:27.228Z,9.83
2018-08-25T03:18:01.912Z,9.80
2018-08-25T03:20:36.893Z,10.03
2018-08-25T03:23:11.279Z,10.23
2018-08-25T03:25:46.248Z,9.70
2018-08-25T03:28:20.794Z,9.97
2018-08-25T03:30:55.248Z,10.03
2018-08-25T03:33:29.640Z,9.00
2018-08-25T03:36:04.251Z,10.10
2018-08-25T03:38:38.966Z,10.80
2018-08-25T03:41:13.536Z,10.90
2018-08-25T03:43:47.969Z,9.77
2018-08-25T03:46:22.707Z,10.10
2018-08-25T03:48:57.216Z,10.30
2018-08-25T03:51:31.972Z,10.20
2018-08-25T03:54:06.971Z,10.20
2018-08-25T03:56:41.984Z,10.43
2018-08-25T03:59:16.618Z,9.53
2018-08-25T04:01:51.283Z,10.60
2018-08-25T04:04:25.791Z,10.33
2018-08-25T04:07:00.669Z,10.47
2018-08-25T04:09:35.047Z,9.87
2018-08-25T04:12:09.761Z,9.83
2018-08-25T04:14:44.942Z,9.43
2018-08-25T04:17:19.953Z,9.63
2018-08-25T04:19:54.695Z,8.67
2018-08-25T04:22:29.603Z,8.60
2018-08-25T04:25:04.773Z,9.07
2018-08-25T04:27:39.106Z,9.57
2018-08-25T04:30:13.492Z,9.33
2018-08-25T04:32:48.272Z,8.77
2018-08-25T04:35:22.924Z,8.63
2018-08-25T04:37:57.516Z,8.13
2018-08-25T04:40:32.340Z,7.83
2018-08-25T04:43:07.216Z,8.33
2018-08-25T04:45:41.872Z,9.13
2018-08-25T04:48:16.160Z,7.90
2018-08-25T04:50:50.767Z,8.20
2018-08-25T04:53:25.336Z,8.00
2018-08-25T04:56:00.404Z,8.30
2018-08-25T04:58:35.251Z,8.13
2018-08-25T05:01:09.831Z,8.20
2018-08-25T05:03:44.384Z,8.23
2018-08-25T05:06:19.419Z,7.70
2018-08-25T05:08:54.339Z,7.93
2018-08-25T05:11:28.621Z,7.83
2018-08-25T05:14:02.953Z,7.63
2018-08-25T05:16:37.301Z,7.60
2018-08-25T05:19:11.631Z,7.70
2018-08-25T05:21:46.396Z,7.47
2018-08-25T05:24:21.721Z,7.67
2018-08-25T05:26:56.428Z,8.03
2018-08-25T05:29:30.808Z,8.30
2018-08-25T05:32:05.668Z,7.33
2018-08-25T05:34:40.323Z,7.83
2018-08-25T05:37:14.932Z,7.10
2018-08-25T05:39:49.740Z,7.27
2018-08-25T05:42:24.204Z,7.43
2018-08-25T05:44:59.051Z,6.90
2018-08-25T05:47:33.532Z,7.30
2018-08-25T05:50:08.494Z,7.50
2018-08-25T05:52:43.500Z,6.97
2018-08-25T05:55:18.916Z,7.80
2018-08-25T05:57:53.487Z,7.73
2018-08-25T06:00:28.484Z,7.37
2018-08-25T06:03:03.211Z,7.70
2018-08-25T06:05:37.576Z,7.37
2018-08-25T06:08:12.053Z,6.90
2018-08-25T06:10:47.179Z,7.00
2018-08-25T06:13:22.012Z,7.00
2018-08-25T06:15:57.188Z,7.30
2018-08-25T06:18:32.240Z,7.20
2018-08-25T06:21:07.127Z,6.77
2018-08-25T06:23:41.431Z,7.70
2018-08-25T06:26:15.982Z,7.20
2018-08-25T06:28:50.723Z,7.60
2018-08-25T06:31:25.601Z,6.83
2018-08-25T06:34:00.364Z,7.10
2018-08-25T06:36:34.987Z,6.97
2018-08-25T06:39:10.683Z,6.87
2018-08-25T06:41:45.239Z,6.83
2018-08-25T06:44:19.824Z,6.73
2018-08-25T06:46:54.947Z,7.00
2018-08-25T06:49:29.249Z,7.30
2018-08-25T06:52:04.239Z,7.40
2018-08-25T06:54:38.808Z,6.63
2018-08-25T06:57:13.168Z,6.13
2018-08-25T06:59:47.959Z,7.57
2018-08-25T07:02:22.580Z,6.67
2018-08-25T07:04:57.376Z,6.90
2018-08-25T07:07:32.317Z,6.70
2018-08-25T07:10:07.451Z,6.27
2018-08-25T07:12:42.275Z,6.70
2018-08-25T07:15:17.116Z,6.60
2018-08-25T07:17:51.619Z,6.27
2018-08-25T07:20:26.197Z,6.53
2018-08-25T07:23:00.615Z,6.50
2018-08-25T07:25:36.121Z,6.23
2018-08-25T07:28:11.093Z,6.13
2018-08-25T07:30:45.789Z,6.17
2018-08-25T07:33:20.356Z,5.90
2018-08-25T07:35:54.832Z,5.80
2018-08-25T07:38:29.336Z,6.30
2018-08-25T07:41:03.641Z,6.30
2018-08-25T07:43:38.628Z,5.70
2018-08-25T07:46:13.325Z,5.60
2018-08-25T07:48:48.215Z,5.50
2018-08-25T07:51:22.678Z,5.27
2018-08-25T07:53:57.536Z,5.73
2018-08-25T07:56:31.952Z,5.33
2018-08-25T07:59:06.771Z,5.40
2018-08-25T08:01:41.475Z,5.50
2018-08-25T08:04:15.971Z,5.00
2018-08-25T08:06:50.761Z,5.27
2018-08-25T08:09:25.490Z,5.47
2018-08-25T08:12:00.774Z,5.50
2018-08-25T08:14:35.715Z,5.03
2018-08-25T08:17:10.119Z,5.13
2018-08-25T08:19:44.487Z,5.33
2018-08-25T08:22:18.975Z,5.87
2018-08-25T08:24:54.228Z,5.40
2018-08-25T08:27:29.048Z,5.20
2018-08-25T08:30:03.642Z,5.20
2018-08-25T08:32:38.408Z,5.27
2018-08-25T08:35:13.524Z,5.33
2018-08-25T08:37:48.171Z,5.63
2018-08-25T08:40:23.186Z,6.00
2018-08-25T08:42:58.332Z,5.60
2018-08-25T08:45:32.726Z,5.70
2018-08-25T08:48:07.732Z,5.57
2018-08-25T08:50:42.261Z,5.43
2018-08-25T08:53:16.942Z,5.50
2018-08-25T08:55:51.664Z,5.07
2018-08-25T08:58:26.687Z,5.07
2018-08-25T09:01:01.232Z,5.07
2018-08-25T09:03:35.987Z,5.47
2018-08-25T09:06:10.616Z,4.90
2018-08-25T09:08:45.115Z,4.40
2018-08-25T09:11:19.614Z,4.77
2018-08-25T09:13:54.564Z,4.30
2018-08-25T09:16:28.851Z,4.50
2018-08-25T09:19:03.905Z,4.90
2018-08-25T09:21:38.270Z,4.33
2018-08-25T09:24:12.745Z,4.43
2018-08-25T09:26:48.104Z,4.30
2018-08-25T09:29:22.635Z,4.00
2018-08-25T09:31:57.476Z,4.50
2018-08-25T09:34:32.572Z,4.03
2018-08-25T09:37:07.297Z,4.50
2018-08-25T09:39:41.944Z,4.40
2018-08-25T09:42:16.517Z,4.00
2018-08-25T09:44:51.059Z,4.00
2018-08-25T09:47:25.607Z,4.17
2018-08-25T09:50:00.024Z,3.73
2018-08-25T09:52:34.936Z,3.83
2018-08-25T09:55:09.550Z,4.03
2018-08-25T09:57:44.524Z,3.77
2018-08-25T10:00:19.156Z,4.13
2018-08-25T10:02:53.936Z,3.40
2018-08-25T10:05:28.956Z,3.83
2018-08-25T10:08:04.034Z,4.03
2018-08-25T10:10:38.423Z,3.57
2018-08-25T10:13:13.317Z,3.20
2018-08-25T10:15:47.752Z,3.70
2018-08-25T10:18:22.638Z,3.43
2018-08-25T10:20:57.211Z,3.17
2018-08-25T10:23:31.743Z,2.90
2018-08-25T10:26:06.608Z,2.97
2018-08-25T10:28:41.524Z,3.17
2018-08-25T10:31:16.412Z,3.03
2018-08-25T10:33:51.406Z,3.23
2018-08-25T10:36:25.771Z,3.20
2018-08-25T10:39:01.434Z,3.10
2018-08-25T10:41:35.987Z,2.90
2018-08-25T10:44:10.658Z,2.90
2018-08-25T10:46:45.063Z,2.90
2018-08-25T10:49:19.720Z,3.30
2018-08-25T10:51:54.483Z,3.20
2018-08-25T10:54:29.524Z,3.17
2018-08-25T10:57:04.250Z,3.60
2018-08-25T10:59:38.682Z,3.40
2018-08-25T11:02:19.751Z,3.27
2018-08-25T11:04:54.907Z,3.00
2018-08-25T11:07:29.504Z,3.03
2018-08-25T11:10:04.148Z,3.00
2018-08-25T11:12:38.699Z,3.50
2018-08-25T11:15:13.741Z,3.77
2018-08-25T11:17:48.855Z,3.40
2018-08-25T11:20:23.948Z,3.20
2018-08-25T11:22:58.391Z,3.43
2018-08-25T11:25:33.392Z,3.33
2018-08-25T11:28:08.339Z,3.63
2018-08-25T11:30:42.644Z,3.80
2018-08-25T11:33:16.892Z,3.60
2018-08-25T11:35:51.995Z,3.67
2018-08-25T11:38:26.431Z,3.30
2018-08-25T11:41:01.368Z,3.60
2018-08-25T11:43:36.235Z,3.80
2018-08-25T11:46:10.915Z,3.63
2018-08-25T11:48:45.231Z,3.87
2018-08-25T11:51:20.031Z,3.80
2018-08-25T11:53:54.629Z,3.70
2018-08-25T11:56:29.269Z,3.60
2018-08-25T11:59:04.023Z,3.77
2018-08-25T12:01:38.919Z,3.73
2018-08-25T12:04:13.812Z,3.97
2018-08-25T12:06:48.208Z,4.20
2018-08-25T12:09:22.676Z,3.80
2018-08-25T12:11:57.592Z,4.00
2018-08-25T12:14:32.719Z,4.40
2018-08-25T12:17:07.171Z,3.90
2018-08-25T12:19:42.210Z,3.67
2018-08-25T12:22:16.835Z,4.03
2018-08-25T12:24:51.380Z,4.30
2018-08-25T12:27:26.199Z,3.63
2018-08-25T12:30:00.588Z,3.90
2018-08-25T12:32:35.293Z,4.10
2018-08-25T12:35:09.584Z,3.80
2018-08-25T12:37:44.452Z,3.87
2018-08-25T12:40:19.723Z,4.80
2018-08-25T12:42:54.305Z,4.67
2018-08-25T12:45:28.739Z,4.30
2018-08-25T12:48:03.535Z,4.30
2018-08-25T12:50:38.567Z,4.30
2018-08-25T12:53:12.926Z,4.40
2018-08-25T12:55:47.531Z,4.60
2018-08-25T12:58:22.267Z,4.80
2018-08-25T13:00:56.899Z,4.63
2018-08-25T13:03:31.420Z,4.67
2018-08-25T13:06:06.856Z,4.70
2018-08-25T13:08:41.947Z,4.90
2018-08-25T13:11:16.684Z,4.23
2018-08-25T13:13:51.327Z,4.30
2018-08-25T13:16:25.732Z,4.70
2018-08-25T13:19:01.506Z,4.50
2018-08-25T13:21:36.179Z,4.57
2018-08-25T13:24:10.573Z,4.80
2018-08-25T13:26:45.392Z,4.57
2018-08-25T13:29:19.879Z,4.13
2018-08-25T13:31:54.473Z,4.53
2018-08-25T13:34:28.836Z,4.70
2018-08-25T13:37:03.797Z,3.87
2018-08-25T13:39:38.366Z,4.37
2018-08-25T13:42:13.083Z,4.63
2018-08-25T13:44:47.429Z,4.10
2018-08-25T13:47:22.088Z,4.73
2018-08-25T13:49:57.317Z,4.77
2018-08-25T13:52:32.183Z,4.63
2018-08-25T13:55:07.343Z,5.57
2018-08-25T13:57:42.021Z,5.37
2018-08-25T14:00:16.848Z,4.80
2018-08-25T14:02:51.352Z,5.57
2018-08-25T14:05:26.672Z,4.97
2018-08-25T14:08:01.144Z,5.53
2018-08-25T14:10:35.995Z,5.40
2018-08-25T14:13:10.719Z,5.60
2018-08-25T14:15:44.971Z,5.47
2018-08-25T14:18:19.737Z,4.73
2018-08-25T14:20:54.705Z,4.80
2018-08-25T14:23:29.432Z,4.93
2018-08-25T14:26:04.131Z,5.00
2018-08-25T14:28:38.404Z,4.93
2018-08-25T14:31:13.019Z,5.43
2018-08-25T14:33:47.924Z,4.40
2018-08-25T14:36:22.675Z,5.13
2018-08-25T14:38:57.303Z,4.70
2018-08-25T14:41:31.748Z,5.00
2018-08-25T14:44:06.776Z,4.60
2018-08-25T14:46:41.720Z,4.30
2018-08-25T14:49:16.495Z,4.63
2018-08-25T14:51:51.495Z,4.23
2018-08-25T14:54:26.337Z,4.60
2018-08-25T14:57:00.875Z,4.10
2018-08-25T14:59:35.383Z,4.00
2018-08-25T15:02:10.231Z,4.40
2018-08-25T15:04:44.935Z,4.80
2018-08-25T15:07:19.775Z,4.70
2018-08-25T15:09:54.171Z,4.30
2018-08-25T15:12:28.612Z,4.17
2018-08-25T15:15:03.143Z,4.57
2018-08-25T15:17:38.243Z,4.10
2018-08-25T15:20:13.211Z,4.53
2018-08-25T15:22:47.704Z,4.87
2018-08-25T15:25:22.268Z,4.33
2018-08-25T15:27:56.692Z,4.53
2018-08-25T15:30:31.476Z,4.03
2018-08-25T15:33:06.239Z,4.30
2018-08-25T15:35:42.334Z,4.33
2018-08-25T15:38:16.786Z,4.10
2018-08-25T15:40:51.319Z,4.17
2018-08-25T15:43:25.873Z,4.20
2018-08-25T15:46:00.279Z,4.23
2018-08-25T15:48:35.219Z,4.13
2018-08-25T15:51:09.583Z,4.50
2018-08-25T15:53:43.868Z,4.77
2018-08-25T15:56:18.332Z,4.83
2018-08-25T15:58:53.151Z,4.70
2018-08-25T16:01:27.707Z,4.53
2018-08-25T16:04:02.455Z,4.80
2018-08-25T16:06:37.146Z,4.47
2018-08-25T16:09:11.963Z,4.07
2018-08-25T16:11:47.287Z,4.30
2018-08-25T16:14:21.920Z,4.43
2018-08-25T16:16:56.912Z,4.20
2018-08-25T16:19:31.474Z,4.77
2018-08-25T16:22:07.060Z,4.90
2018-08-25T16:24:41.853Z,4.53
2018-08-25T16:27:17.009Z,4.00
2018-08-25T16:29:51.615Z,4.50
2018-08-25T16:32:26.366Z,4.23
2018-08-25T16:35:00.837Z,4.13
2018-08-25T16:37:35.562Z,3.97
2018-08-25T16:40:10.317Z,5.20
2018-08-25T16:42:45.719Z,4.60
2018-08-25T16:45:20.752Z,4.47
2018-08-25T16:47:55.643Z,4.10
2018-08-25T16:50:30.264Z,4.53
2018-08-25T16:53:05.776Z,4.27
2018-08-25T16:55:40.606Z,4.30
2018-08-25T16:58:15.120Z,4.43
2018-08-25T17:00:49.592Z,4.90
2018-08-25T17:03:24.462Z,4.30
2018-08-25T17:05:58.916Z,4.77
2018-08-25T17:08:33.631Z,4.37
2018-08-25T17:11:08.928Z,5.03
2018-08-25T17:13:43.416Z,4.47
2018-08-25T17:16:18.452Z,4.50
2018-08-25T17:18:53.316Z,4.60
2018-08-25T17:21:28.072Z,4.80
2018-08-25T17:24:02.359Z,4.30
2018-08-25T17:26:37.312Z,4.80
2018-08-25T17:29:11.939Z,5.43
2018-08-25T17:31:46.675Z,4.70
2018-08-25T17:34:21.076Z,4.57
2018-08-25T17:36:55.520Z,4.97
2018-08-25T17:39:30.315Z,4.20
2018-08-25T17:42:05.516Z,5.30
2018-08-25T17:44:39.904Z,4.40
2018-08-25T17:47:14.195Z,4.73
2018-08-25T17:49:48.701Z,4.20
2018-08-25T17:52:23.139Z,4.63
2018-08-25T17:54:58.003Z,4.40
2018-08-25T17:57:32.916Z,4.43
2018-08-25T18:00:07.976Z,4.80
2018-08-25T18:02:43.086Z,4.77
2018-08-25T18:05:17.848Z,4.60
2018-08-25T18:07:52.391Z,4.40
2018-08-25T18:10:27.308Z,4.50
2018-08-25T18:13:01.672Z,4.60
2018-08-25T18:15:36.859Z,3.90
2018-08-25T18:18:12.111Z,4.50
2018-08-25T18:20:46.917Z,4.27
2018-08-25T18:23:22.075Z,4.03
2018-08-25T18:25:57.207Z,4.40
2018-08-25T18:28:31.720Z,4.50
2018-08-25T18:31:06.192Z,4.50
2018-08-25T18:33:40.715Z,4.07
2018-08-25T18:36:15.488Z,4.00
2018-08-25T18:38:50.898Z,4.23
2018-08-25T18:41:25.796Z,4.07
2018-08-25T18:44:00.829Z,4.10
2018-08-25T18:46:35.367Z,4.20
2018-08-25T18:49:09.871Z,3.90
2018-08-25T18:51:44.959Z,4.03
2018-08-25T18:54:20.279Z,4.17
2018-08-25T18:56:54.896Z,3.70
2018-08-25T18:59:29.595Z,3.90
2018-08-25T19:02:04.393Z,4.10
2018-08-25T19:04:39.403Z,4.03
2018-08-25T19:07:14.436Z,4.60
2018-08-25T19:09:50.307Z,4.40
2018-08-25T19:12:24.970Z,4.17
2018-08-25T19:14:59.336Z,3.80
2018-08-25T19:17:33.698Z,4.10
2018-08-25T19:20:08.244Z,3.80
2018-08-25T19:22:42.768Z,4.13
2018-08-25T19:25:17.842Z,4.00
2018-08-25T19:27:52.301Z,3.70
2018-08-25T19:30:26.705Z,3.87
2018-08-25T19:33:01.975Z,3.97
2018-08-25T19:35:36.947Z,4.40
2018-08-25T19:38:11.879Z,4.30
2018-08-25T19:40:46.668Z,3.90
2018-08-25T19:43:22.015Z,4.10
2018-08-25T19:45:56.428Z,4.20
2018-08-25T19:48:30.884Z,4.07
2018-08-25T19:51:05.207Z,4.03
2018-08-25T19:53:39.835Z,3.97
2018-08-25T19:56:14.459Z,4.20
2018-08-25T19:58:48.939Z,4.27
2018-08-25T20:01:23.299Z,4.27
2018-08-25T20:03:58.150Z,4.10
2018-08-25T20:06:32.976Z,4.00
2018-08-25T20:09:08.075Z,4.53
2018-08-25T20:11:42.723Z,3.80
2018-08-25T20:14:17.331Z,4.30
2018-08-25T20:16:52.136Z,4.53
2018-08-25T20:19:27.207Z,3.90
2018-08-25T20:22:01.692Z,3.90
2018-08-25T20:24:36.171Z,3.93
2018-08-25T20:27:10.946Z,4.10
2018-08-25T20:29:45.854Z,3.80
2018-08-25T20:32:20.524Z,4.40
2018-08-25T20:34:55.124Z,3.77
2018-08-25T20:37:30.056Z,3.90
2018-08-25T20:40:04.823Z,3.93
2018-08-25T20:42:39.608Z,3.90
2018-08-25T20:45:14.032Z,3.87
2018-08-25T20:47:48.686Z,4.00
2018-08-25T20:50:23.140Z,3.80
2018-08-25T20:52:57.798Z,3.97
2018-08-25T20:55:32.169Z,3.80
2018-08-25T20:58:07.048Z,3.83
2018-08-25T21:00:41.858Z,3.87
2018-08-25T21:03:16.615Z,4.27
2018-08-25T21:05:51.300Z,3.57
2018-08-25T21:08:26.722Z,3.93
2018-08-25T21:11:01.005Z,3.87
2018-08-25T21:13:35.823Z,4.10
2018-08-25T21:16:10.455Z,3.73
2018-08-25T21:18:45.834Z,4.33
2018-08-25T21:21:20.734Z,4.30
2018-08-25T21:23:55.303Z,3.40
2018-08-25T21:26:30.152Z,3.10
2018-08-25T21:29:04.519Z,3.10
2018-08-25T21:31:39.022Z,2.80
2018-08-25T21:34:13.462Z,2.70
2018-08-25T21:36:47.899Z,3.10
2018-08-25T21:39:22.217Z,2.90
2018-08-25T21:41:56.979Z,3.00
2018-08-25T21:44:31.533Z,3.00
2018-08-25T21:47:06.207Z,2.70
2018-08-25T21:49:40.764Z,3.00
2018-08-25T21:52:15.421Z,3.00
2018-08-25T21:54:50.483Z,3.27
2018-08-25T21:57:24.975Z,2.90
2018-08-25T21:59:59.381Z,2.70
2018-08-25T22:02:33.764Z,2.50
2018-08-25T22:05:08.592Z,2.50
2018-08-25T22:07:43.777Z,2.57
2018-08-25T22:10:18.161Z,2.70
2018-08-25T22:12:53.111Z,2.73
2018-08-25T22:15:27.619Z,3.00
2018-08-25T22:18:02.071Z,2.80
2018-08-25T22:20:36.740Z,2.90
2018-08-25T22:23:11.411Z,2.90
2018-08-25T22:25:46.176Z,2.80
2018-08-25T22:28:20.611Z,2.50
2018-08-25T22:30:55.221Z,2.87
2018-08-25T22:33:29.789Z,3.10
2018-08-25T22:36:04.752Z,2.87
2018-08-25T22:38:39.140Z,2.63
2018-08-25T22:41:13.496Z,2.90
2018-08-25T22:43:48.114Z,3.10
2018-08-25T22:46:22.856Z,2.90
2018-08-25T22:48:57.567Z,2.90
2018-08-25T22:51:32.241Z,2.80
2018-08-25T22:54:07.917Z,2.63
2018-08-25T22:56:42.525Z,2.80
2018-08-25T22:59:17.000Z,2.60
2018-08-25T23:01:53.270Z,2.70
2018-08-25T23:04:27.755Z,2.93
2018-08-25T23:07:02.271Z,2.77
2018-08-25T23:09:37.295Z,2.80
2018-08-25T23:12:12.038Z,2.93
2018-08-25T23:14:46.853Z,2.83
2018-08-25T23:17:21.843Z,3.17
2018-08-25T23:19:57.329Z,2.93
2018-08-25T23:22:32.279Z,2.90
2018-08-25T23:25:06.713Z,3.50
2018-08-25T23:27:41.040Z,2.80
2018-08-25T23:30:15.520Z,3.00
2018-08-25T23:32:50.744Z,3.33
2018-08-25T23:35:25.080Z,3.03
2018-08-25T23:37:59.762Z,3.37
2018-08-25T23:40:34.517Z,3.10
2018-08-25T23:43:09.308Z,3.10
2018-08-25T23:45:44.260Z,3.10
2018-08-25T23:48:19.020Z,3.20
2018-08-25T23:50:53.476Z,3.80
2018-08-25T23:53:28.492Z,3.50
2018-08-25T23:56:03.815Z,3.40
2018-08-25T23:58:38.275Z,3.50
